Terminal Aerodrome Forecast
Issued by NWS

Home | Current Version | Previous Version | Text Only | Print | Product List | Glossary On
Versions: 1 2 3 4 5 6 7 8 9 10 11 12 13 14
000
FTUS41 KBOX 221331 AAA
TAFBAF
TAF AMD
KBAF 221331Z 2214/2312 17009KT P6SM VCSH SCT025 OVC040
     FM221700 17006KT P6SM OVC030
     FM221900 16007KT P6SM VCSH OVC015
     FM222100 16007KT 4SM -SHRA BR OVC010
     FM230400 00000KT 3SM BR BKN008
     FM230700 VRB03KT P6SM SCT040
     FM231000 34004KT P6SM SCT250=

USA.gov is the U.S. government's official web portal to all federal, state and local government web resources and services.